Time;durP1;ratioP1;P1;durP2;ratioP2;P2;SDS_P1;SDS_P2;PMS_P1;PMS_P2;Temp;Humidity;BMP_temperature;BMP_pressure;BME280_temperature;BME280_humidity;BME280_pressure;Samples;Min_cycle;Max_cycle;Signal;HPM_P1;HPM_P2
2022/04/26 03:38:47;;;;;;;36.97;19.03;;;;;;;9.30;100.00;100209.25;10543197;28;20303;-70
2022/04/26 03:43:50;;;;;;;9.53;5.73;;;;;;;9.27;100.00;100219.63;10543126;28;20249;-66
2022/04/26 03:48:55;;;;;;;10.00;5.63;;;;;;;9.17;100.00;100212.81;10543021;28;20212;-67
2022/04/26 03:53:58;;;;;;;8.87;5.47;;;;;;;9.15;100.00;100216.28;10543690;28;20219;-69
2022/04/26 03:59:07;;;;;;;9.00;5.47;;;;;;;9.17;100.00;100224.88;10542581;28;20224;-69
2022/04/26 04:04:12;;;;;;;10.50;5.70;;;;;;;9.16;100.00;100231.78;10542415;28;20653;-70
2022/04/26 04:09:18;;;;;;;21.03;11.00;;;;;;;9.07;100.00;100234.47;10542433;28;20300;-67
2022/04/26 04:14:21;;;;;;;11.77;7.33;;;;;;;9.10;100.00;100234.44;10542376;28;20230;-66
2022/04/26 04:19:27;;;;;;;12.00;7.37;;;;;;;8.97;100.00;100243.13;10542246;28;20219;-65
2022/04/26 04:24:30;;;;;;;12.90;7.40;;;;;;;9.03;100.00;100245.69;10543082;28;20218;-70
2022/04/26 04:29:33;;;;;;;13.27;7.27;;;;;;;9.14;100.00;100256.00;10541941;28;20211;-69
2022/04/26 04:34:39;;;;;;;11.00;6.57;;;;;;;9.13;100.00;100262.88;10542279;28;20233;-70
2022/04/26 04:39:43;;;;;;;14.23;7.30;;;;;;;9.11;100.00;100262.03;10549827;28;20219;-66
2022/04/26 04:44:46;;;;;;;11.13;7.00;;;;;;;9.09;100.00;100276.72;10550040;28;20222;-71
2022/04/26 04:49:50;;;;;;;10.70;6.70;;;;;;;9.07;100.00;100283.66;10551325;28;20221;-68
2022/04/26 04:54:54;;;;;;;13.93;7.67;;;;;;;9.05;100.00;100277.63;10549902;28;20668;-68
2022/04/26 05:00:00;;;;;;;15.20;9.17;;;;;;;9.03;100.00;100284.53;10549664;28;20222;-67
2022/04/26 05:05:06;;;;;;;15.03;9.73;;;;;;;9.13;100.00;100291.38;10549785;28;20228;-69
2022/04/26 05:10:10;;;;;;;17.10;9.23;;;;;;;9.00;100.00;100297.50;10549813;28;20215;-69
2022/04/26 05:15:13;;;;;;;13.87;9.13;;;;;;;8.92;100.00;100295.81;10549514;28;20231;-69
2022/04/26 05:20:18;;;;;;;14.50;8.57;;;;;;;8.98;100.00;100301.81;10549568;28;20207;-68
2022/04/26 05:25:21;;;;;;;13.13;8.57;;;;;;;9.10;100.00;100306.06;10548654;28;20233;-70
2022/04/26 05:30:24;;;;;;;11.90;7.07;;;;;;;9.02;100.00;100318.19;10548235;28;20212;-67
2022/04/26 05:35:29;;;;;;;14.10;8.07;;;;;;;9.05;100.00;100312.97;10521080;28;20211;-66
2022/04/26 05:40:32;;;;;;;12.63;7.17;;;;;;;9.04;100.00;100324.22;10524483;28;20216;-67
2022/04/26 05:45:35;;;;;;;12.50;8.03;;;;;;;9.03;100.00;100325.94;10507315;28;20236;-68
2022/04/26 05:50:46;;;;;;;13.10;9.00;;;;;;;8.85;100.00;100333.75;10504616;28;20230;-68
2022/04/26 05:55:49;;;;;;;15.97;9.40;;;;;;;8.83;100.00;100337.25;10506858;28;20412;-67
2022/04/26 06:00:52;;;;;;;14.90;9.27;;;;;;;8.78;100.00;100349.34;10546154;28;20214;-70
2022/04/26 06:05:57;;;;;;;16.63;9.87;;;;;;;8.88;100.00;100351.03;10545832;28;20664;-72
2022/04/26 06:11:00;;;;;;;17.67;10.47;;;;;;;8.87;100.00;100354.50;10546793;28;20208;-68
2022/04/26 06:16:04;;;;;;;14.87;9.20;;;;;;;8.91;100.00;100354.47;10543470;28;20635;-71
2022/04/26 06:21:09;;;;;;;15.97;9.50;;;;;;;8.78;100.00;100364.88;10545483;28;20218;-71
2022/04/26 06:26:13;;;;;;;17.57;10.67;;;;;;;8.83;100.00;100365.72;10545178;28;20234;-72
2022/04/26 06:31:17;;;;;;;16.03;10.03;;;;;;;8.80;100.00;100379.50;10539687;28;20589;-69
2022/04/26 06:36:22;;;;;;;15.90;9.33;;;;;;;8.77;100.00;100379.50;10542564;28;20211;-73
2022/04/26 06:41:25;;;;;;;14.83;8.80;;;;;;;8.88;100.00;100377.78;10545936;28;20231;-70
2022/04/26 06:46:29;;;;;;;14.03;9.03;;;;;;;8.90;100.00;100381.22;10544818;28;20215;-69
2022/04/26 06:51:38;;;;;;;11.33;7.57;;;;;;;8.93;100.00;100388.97;10544359;28;20290;-72
2022/04/26 06:56:41;;;;;;;12.33;8.33;;;;;;;8.96;100.00;100388.09;10541687;28;20226;-70
2022/04/26 07:01:45;;;;;;;13.80;8.03;;;;;;;9.08;100.00;100388.91;10528124;28;20661;-68
2022/04/26 07:06:50;;;;;;;10.77;6.73;;;;;;;9.19;100.00;100388.88;10502305;28;20235;-68
2022/04/26 07:11:54;;;;;;;11.53;7.03;;;;;;;9.27;100.00;100397.47;10503007;28;20314;-68
2022/04/26 07:17:00;;;;;;;12.37;8.17;;;;;;;9.32;100.00;100396.56;10503139;28;20266;-67
2022/04/26 07:22:05;;;;;;;11.57;7.33;;;;;;;9.43;100.00;100406.03;10501681;28;20526;-68
2022/04/26 07:27:08;;;;;;;13.30;7.90;;;;;;;9.44;100.00;100410.34;10501406;28;20706;-72
2022/04/26 07:32:11;;;;;;;12.07;6.87;;;;;;;9.49;100.00;100417.22;10501489;28;20299;-70
2022/04/26 07:37:20;;;;;;;10.23;6.23;;;;;;;9.55;100.00;100422.38;10501343;28;20220;-73
2022/04/26 07:42:23;;;;;;;10.97;6.53;;;;;;;9.58;100.00;100426.69;10530542;28;20208;-71
2022/04/26 07:47:30;;;;;;;10.40;6.40;;;;;;;9.64;100.00;100427.50;10540585;28;20223;-69
2022/04/26 07:52:35;;;;;;;11.67;7.37;;;;;;;9.73;100.00;100431.78;10539156;28;20211;-70
2022/04/26 07:57:39;;;;;;;15.00;8.53;;;;;;;9.76;100.00;100436.94;10536529;28;20219;-68
2022/04/26 08:02:43;;;;;;;13.20;8.13;;;;;;;9.92;100.00;100444.59;10534163;28;20228;-70
2022/04/26 08:07:49;;;;;;;11.13;6.97;;;;;;;10.01;100.00;100439.38;10500275;28;20284;-71
2022/04/26 08:12:52;;;;;;;11.00;6.63;;;;;;;10.05;100.00;100455.78;10500016;28;20584;-69
2022/04/26 08:17:56;;;;;;;10.83;6.23;;;;;;;10.21;100.00;100452.25;10500947;28;20219;-67
2022/04/26 08:23:03;;;;;;;12.53;6.63;;;;;;;10.40;100.00;100462.47;10500245;28;20596;-69
2022/04/26 08:28:07;;;;;;;18.17;9.80;;;;;;;10.30;100.00;100465.16;10499842;28;20215;-69
2022/04/26 08:33:11;;;;;;;10.40;6.50;;;;;;;10.36;100.00;100467.69;10499953;28;20276;-70
2022/04/26 08:38:15;;;;;;;15.53;7.90;;;;;;;10.35;100.00;100465.97;10496058;28;20206;-70
2022/04/26 08:43:19;;;;;;;14.37;8.10;;;;;;;10.42;100.00;100475.44;10495996;28;20196;-69
2022/04/26 08:53:44;;;;;;;15.27;9.23;;;;;;;10.18;100.00;100486.00;10500522;28;20569;-69
2022/04/26 08:58:50;;;;;;;14.73;9.73;;;;;;;10.22;100.00;100491.13;10500076;28;20196;-74
2022/04/26 09:03:55;;;;;;;16.10;10.20;;;;;;;10.17;100.00;100495.50;10499225;28;20220;-69
2022/04/26 09:09:07;;;;;;;14.57;8.77;;;;;;;10.31;100.00;100495.41;10499124;28;20638;-69
2022/04/26 09:14:30;;;;;;;15.97;9.83;;;;;;;10.34;100.00;100506.63;10498926;28;20218;-67
2022/04/26 09:19:44;;;;;;;16.57;9.13;;;;;;;10.39;100.00;100507.44;10499143;28;20216;-70
2022/04/26 09:24:57;;;;;;;17.13;10.53;;;;;;;10.24;100.00;100519.66;10505237;28;20226;-69
2022/04/26 09:30:08;;;;;;;17.73;10.27;;;;;;;10.33;100.00;100522.19;10506504;28;20268;-70
2022/04/26 09:35:18;;;;;;;15.07;9.00;;;;;;;10.38;100.00;100530.81;10506118;28;20219;-72
2022/04/26 09:40:28;;;;;;;15.97;10.23;;;;;;;10.55;100.00;100520.28;10505886;28;20517;-73
2022/04/26 09:45:31;;;;;;;18.83;10.80;;;;;;;10.46;100.00;100521.22;10505818;28;20265;-67
2022/04/26 09:50:35;;;;;;;18.07;9.83;;;;;;;10.58;100.00;100510.75;10505775;28;20304;-71
2022/04/26 09:55:41;;;;;;;16.37;11.47;;;;;;;10.85;100.00;100517.47;10505643;28;20231;-69
2022/04/26 10:00:47;;;;;;;17.10;11.57;;;;;;;10.85;100.00;100518.34;10505614;28;20676;-66
2022/04/26 10:06:01;;;;;;;19.27;12.73;;;;;;;10.87;100.00;100519.16;10504487;28;20296;-63
2022/04/26 10:11:05;;;;;;;17.67;11.43;;;;;;;10.81;100.00;100532.22;10531123;28;20211;-69
2022/04/26 10:16:11;;;;;;;15.13;9.73;;;;;;;10.87;100.00;100532.16;10507069;28;20215;-64
2022/04/26 10:21:47;;;;;;;13.73;9.20;;;;;;;11.31;100.00;100522.22;10535865;28;20211;-66
2022/04/26 10:26:53;;;;;;;13.60;8.53;;;;;;;11.85;97.93;100520.75;10546299;28;20303;-64
2022/04/26 10:32:00;;;;;;;13.13;7.63;;;;;;;12.12;96.70;100519.50;10546188;28;20695;-67
2022/04/26 10:37:32;;;;;;;11.43;7.30;;;;;;;12.11;92.67;100536.00;10528155;28;20276;-67
2022/04/26 10:42:36;;;;;;;11.00;7.20;;;;;;;11.87;91.56;100536.34;10503296;28;20220;-69
2022/04/26 10:47:40;;;;;;;21.97;15.03;;;;;;;11.85;91.16;100528.56;10503403;28;20216;-69
2022/04/26 10:52:47;;;;;;;14.60;7.47;;;;;;;11.93;90.60;100534.50;10503260;28;20220;-67
2022/04/26 10:57:52;;;;;;;14.60;7.07;;;;;;;12.10;90.18;100537.75;10502584;28;20226;-68
2022/04/26 11:03:02;;;;;;;9.90;6.30;;;;;;;12.50;88.41;100523.28;10503219;28;20236;-67
2022/04/26 11:08:06;;;;;;;12.90;7.17;;;;;;;12.65;85.92;100530.84;10502467;28;20232;-68
2022/04/26 11:13:19;;;;;;;11.57;7.03;;;;;;;12.72;85.29;100531.59;10502232;28;20298;-65
2022/04/26 11:18:24;;;;;;;10.23;6.40;;;;;;;12.84;83.94;100526.19;10502743;28;20555;-66
2022/04/26 11:29:19;;;;;;;12.80;8.20;;;;;;;13.36;81.88;100531.38;10516272;28;20432;-68
2022/04/26 11:34:46;;;;;;;10.93;7.13;;;;;;;13.53;78.41;100534.56;10527868;28;20237;-69
2022/04/26 11:39:49;;;;;;;10.30;6.70;;;;;;;13.59;79.57;100532.69;10519553;28;20219;-67
2022/04/26 11:45:02;;;;;;;11.30;5.90;;;;;;;13.76;80.42;100537.56;10502306;28;20220;-64
2022/04/26 11:50:10;;;;;;;12.43;6.77;;;;;;;13.77;75.92;100529.69;10500937;28;20230;-66
2022/04/26 11:55:21;;;;;;;15.37;6.90;;;;;;;13.53;78.06;100539.78;10539854;28;20534;-66
2022/04/26 12:00:27;;;;;;;8.93;5.10;;;;;;;13.62;78.26;100537.84;10542060;28;20669;-67
2022/04/26 12:05:37;;;;;;;19.10;7.77;;;;;;;13.55;76.51;100538.84;10539607;28;20235;-68
2022/04/26 12:10:41;;;;;;;16.00;10.30;;;;;;;13.65;76.38;100540.38;10539623;28;20215;-68
2022/04/26 12:15:46;;;;;;;10.33;6.40;;;;;;;13.71;75.51;100545.50;10541389;28;20603;-64
2022/04/26 12:20:58;;;;;;;12.83;7.23;;;;;;;13.58;75.21;100538.78;10542309;28;20218;-62
2022/04/26 12:26:02;;;;;;;11.17;6.17;;;;;;;13.61;77.60;100536.13;10541835;28;20219;-67
2022/04/26 12:31:21;;;;;;;10.43;5.40;;;;;;;14.06;74.02;100528.25;10525002;28;20224;-63
2022/04/26 12:36:24;;;;;;;11.33;5.00;;;;;;;14.31;74.79;100521.59;10503307;28;20222;-69
2022/04/26 12:41:27;;;;;;;8.47;4.73;;;;;;;14.38;71.13;100521.44;10530317;28;20215;-64
2022/04/26 12:46:45;;;;;;;9.87;5.13;;;;;;;14.22;69.43;100517.41;10541298;28;20238;-66
2022/04/26 12:52:04;;;;;;;10.27;5.67;;;;;;;14.02;74.25;100529.19;10521262;28;20673;-65
2022/04/26 12:57:09;;;;;;;10.80;6.23;;;;;;;14.09;74.46;100522.94;10504946;28;20216;-65
2022/04/26 13:02:13;;;;;;;11.17;5.30;;;;;;;13.97;71.54;100525.81;10543224;28;20223;-64
2022/04/26 13:07:17;;;;;;;10.63;4.90;;;;;;;13.93;72.43;100530.25;10548368;28;20223;-67
2022/04/26 13:12:20;;;;;;;9.00;5.43;;;;;;;13.75;72.70;100536.69;10549416;28;20216;-69
2022/04/26 13:17:25;;;;;;;9.43;5.47;;;;;;;13.76;72.64;100528.00;10538337;28;20532;-63
2022/04/26 13:22:30;;;;;;;11.83;5.73;;;;;;;13.71;71.50;100531.56;10543660;28;20273;-66
2022/04/26 13:27:34;;;;;;;8.10;4.53;;;;;;;13.59;72.49;100526.59;10547572;28;20230;-67
2022/04/26 13:32:38;;;;;;;9.27;5.45;;;;;;;13.65;73.34;100527.34;10545553;28;20411;-68
2022/04/26 13:37:43;;;;;;;9.33;5.20;;;;;;;13.76;73.17;100530.59;10547994;28;20223;-69
2022/04/26 13:42:47;;;;;;;8.80;4.80;;;;;;;13.77;71.69;100536.69;10545134;28;20552;-69
2022/04/26 13:47:52;;;;;;;7.87;4.77;;;;;;;13.70;72.48;100533.31;10546893;28;20234;-67
2022/04/26 13:52:56;;;;;;;7.97;4.00;;;;;;;13.77;71.71;100529.69;10545246;28;20219;-67
2022/04/26 13:58:00;;;;;;;8.83;4.10;;;;;;;13.71;71.06;100536.78;10547235;28;20207;-65
2022/04/26 14:03:06;;;;;;;10.67;5.30;;;;;;;13.67;70.24;100542.94;10546501;28;20234;-69
2022/04/26 14:08:09;;;;;;;8.23;4.60;;;;;;;13.49;70.82;100536.38;10546420;28;20233;-70
2022/04/26 14:13:13;;;;;;;8.70;5.20;;;;;;;13.63;72.79;100541.31;10547696;28;20266;-71
2022/04/26 14:23:40;;;;;;;9.30;4.43;;;;;;;13.65;75.12;100544.75;10546153;28;20201;-66
2022/04/26 14:28:44;;;;;;;12.33;5.10;;;;;;;13.77;73.09;100542.75;10545970;28;20227;-70
2022/04/26 14:33:48;;;;;;;10.97;5.57;;;;;;;13.62;74.13;100537.84;10546027;28;20282;-67
2022/04/26 14:38:52;;;;;;;11.17;5.20;;;;;;;13.66;72.53;100542.13;10527583;28;20242;-68
2022/04/26 14:43:56;;;;;;;8.03;4.73;;;;;;;13.59;70.36;100543.13;10575255;28;20282;-67
2022/04/26 14:49:00;;;;;;;8.93;5.30;;;;;;;13.66;72.97;100551.69;10544924;28;20622;-67
2022/04/26 14:54:04;;;;;;;9.00;5.30;;;;;;;13.65;72.82;100543.00;10537901;28;20214;-68
2022/04/26 14:59:07;;;;;;;10.07;5.40;;;;;;;13.61;74.61;100548.31;10502776;28;20222;-67
2022/04/26 15:04:13;;;;;;;8.50;5.07;;;;;;;13.40;73.09;100549.56;10502292;28;20313;-66
2022/04/26 15:20:13;;;;;;;11.50;5.57;;;;;;;13.19;74.26;100554.28;10501382;28;20701;-70
2022/04/26 15:25:16;;;;;;;8.27;4.53;;;;;;;13.16;74.56;100557.84;10502038;28;20188;-67
2022/04/26 15:30:20;;;;;;;9.47;5.47;;;;;;;13.05;77.03;100566.69;10501660;28;20234;-70
2022/04/26 15:35:25;;;;;;;16.37;9.83;;;;;;;12.99;77.35;100565.03;10501746;28;20223;-66
2022/04/26 15:40:28;;;;;;;11.43;6.20;;;;;;;12.95;78.80;100563.38;10502082;28;20192;-67
2022/04/26 15:45:31;;;;;;;12.73;5.87;;;;;;;12.88;79.42;100566.09;10501331;28;20226;-65
2022/04/26 15:50:39;;;;;;;9.83;5.57;;;;;;;12.83;75.73;100566.16;10501477;28;20220;-66
2022/04/26 15:55:42;;;;;;;10.27;6.33;;;;;;;12.79;78.30;100560.16;10501016;28;20226;-70
2022/04/26 16:00:46;;;;;;;25.27;17.50;;;;;;;12.85;75.07;100568.75;10500743;28;20642;-67
2022/04/26 16:05:52;;;;;;;9.70;5.53;;;;;;;12.75;75.79;100568.03;10500713;28;20315;-70
2022/04/26 16:21:40;;;;;;;9.60;5.27;;;;;;;12.69;75.10;100569.00;10541536;28;20237;-69
2022/04/26 16:26:44;;;;;;;14.87;8.30;;;;;;;12.66;75.83;100568.19;10542043;28;20216;-68
2022/04/26 16:31:48;;;;;;;8.97;4.60;;;;;;;12.60;74.80;100571.72;10543180;28;20212;-67
2022/04/26 16:36:52;;;;;;;8.23;5.17;;;;;;;12.46;74.49;100570.19;10550838;28;20223;-67
2022/04/26 16:41:56;;;;;;;9.83;4.47;;;;;;;12.37;75.37;100578.16;10550759;28;20272;-67
2022/04/26 16:46:59;;;;;;;9.70;5.67;;;;;;;12.40;76.80;100572.91;10550783;28;20212;-71
2022/04/26 16:52:05;;;;;;;8.37;4.90;;;;;;;12.43;78.21;100575.44;10550052;28;20219;-66
2022/04/26 16:57:08;;;;;;;11.90;5.63;;;;;;;12.41;81.24;100578.09;10549671;28;20548;-68
2022/04/26 17:02:14;;;;;;;11.50;6.07;;;;;;;12.27;79.66;100586.97;10549228;28;20233;-64
2022/04/26 17:07:19;;;;;;;13.37;6.17;;;;;;;12.33;82.38;100581.69;10549332;28;20304;-64
2022/04/26 17:12:26;;;;;;;12.47;5.10;;;;;;;12.22;80.21;100587.03;10548855;28;20234;-61
2022/04/26 17:17:33;;;;;;;10.10;4.90;;;;;;;12.18;80.40;100590.53;10542707;28;20296;-65
2022/04/26 17:22:37;;;;;;;11.67;5.47;;;;;;;12.19;81.12;100601.81;10519972;28;20243;-69
2022/04/26 17:27:41;;;;;;;11.20;6.70;;;;;;;12.22;81.98;100607.84;10547410;28;20510;-68
2022/04/26 17:32:46;;;;;;;9.53;5.50;;;;;;;12.20;82.75;100608.75;10531765;28;20310;-66
2022/04/26 17:37:52;;;;;;;9.87;4.87;;;;;;;12.23;85.10;100613.91;10506177;28;20358;-69
2022/04/26 17:42:57;;;;;;;8.90;4.93;;;;;;;12.21;82.45;100620.88;10505171;28;20216;-67
2022/04/26 17:48:01;;;;;;;8.80;4.60;;;;;;;12.17;80.58;100629.59;10507414;28;20238;-69
2022/04/26 17:58:26;;;;;;;10.80;5.40;;;;;;;12.15;83.17;100640.03;10547380;28;20641;-66
2022/04/26 18:03:30;;;;;;;7.50;3.87;;;;;;;12.10;80.54;100640.94;10517324;28;20229;-69
2022/04/26 18:08:36;;;;;;;9.47;4.17;;;;;;;12.10;84.17;100647.03;10527219;28;20241;-67
2022/04/26 18:13:40;;;;;;;8.37;4.87;;;;;;;11.97;85.15;100647.19;10511585;28;20215;-66
2022/04/26 18:18:43;;;;;;;8.97;4.20;;;;;;;11.92;87.36;100659.38;10546577;28;20230;-65
2022/04/26 18:23:47;;;;;;;8.13;4.50;;;;;;;11.87;89.42;100668.97;10525458;28;20280;-67
2022/04/26 18:28:53;;;;;;;8.30;4.47;;;;;;;11.84;88.37;100682.00;10504451;28;20220;-69
2022/04/26 18:33:56;;;;;;;8.93;5.00;;;;;;;11.81;90.72;100690.69;10504675;28;20275;-67
2022/04/26 18:39:01;;;;;;;8.57;4.53;;;;;;;11.80;89.15;100693.31;10503943;28;20302;-68
2022/04/26 18:44:05;;;;;;;9.67;4.33;;;;;;;11.80;91.85;100698.50;10506403;28;20309;-66
2022/04/26 18:49:11;;;;;;;11.93;5.37;;;;;;;11.75;92.86;100698.56;10545258;28;20232;-66
2022/04/26 18:54:16;;;;;;;19.33;6.70;;;;;;;11.74;91.23;100704.63;10545427;28;20215;-70
2022/04/26 18:59:20;;;;;;;13.50;6.33;;;;;;;11.72;91.19;100708.97;10545184;28;20229;-67
2022/04/26 19:04:25;;;;;;;11.70;5.80;;;;;;;11.70;94.14;100707.28;10544847;28;20243;-70
2022/04/26 19:09:29;;;;;;;12.53;6.53;;;;;;;11.69;92.16;100711.63;10545229;28;20218;-70
2022/04/26 19:14:33;;;;;;;12.73;6.20;;;;;;;11.65;93.56;100716.88;10544489;28;20230;-68
2022/04/26 19:19:36;;;;;;;14.57;6.07;;;;;;;11.65;95.84;100724.66;10545024;28;20280;-67
2022/04/26 19:24:41;;;;;;;12.83;6.90;;;;;;;11.65;92.47;100720.31;10544977;28;20219;-72
2022/04/26 19:29:45;;;;;;;12.70;6.77;;;;;;;11.65;93.98;100725.50;10544006;28;20249;-67
2022/04/26 19:34:48;;;;;;;15.17;7.50;;;;;;;11.58;95.82;100736.78;10544356;28;20345;-66
2022/04/26 19:39:53;;;;;;;16.67;6.93;;;;;;;11.54;96.84;100737.72;10543641;28;20187;-69
2022/04/26 19:45:01;;;;;;;12.17;6.10;;;;;;;11.53;97.38;100746.38;10543573;28;20270;-67
2022/04/26 19:55:27;;;;;;;11.50;5.77;;;;;;;11.47;99.08;100754.22;10541036;28;20245;-68
2022/04/26 20:00:33;;;;;;;11.60;6.53;;;;;;;11.44;98.68;100752.50;10510830;28;20203;-68
2022/04/26 20:05:41;;;;;;;12.53;6.53;;;;;;;11.41;100.00;100754.25;10536499;28;20235;-67
2022/04/26 20:10:46;;;;;;;11.80;6.67;;;;;;;11.35;99.50;100747.41;10541964;28;20218;-67
2022/04/26 20:15:50;;;;;;;12.33;6.27;;;;;;;11.34;100.00;100747.38;10542004;28;20213;-69
2022/04/26 20:21:01;;;;;;;13.57;7.30;;;;;;;11.31;100.00;100750.00;10540355;28;20196;-68
2022/04/26 20:31:33;;;;;;;13.90;6.57;;;;;;;11.23;100.00;100754.41;10541925;28;20222;-72
2022/04/26 20:36:37;;;;;;;12.10;6.60;;;;;;;11.25;100.00;100768.25;10542132;28;20260;-66
2022/04/26 20:41:43;;;;;;;13.43;7.27;;;;;;;11.22;100.00;100763.91;10542183;28;20195;-70
2022/04/26 20:46:46;;;;;;;16.07;6.30;;;;;;;11.19;100.00;100758.75;10544058;28;20226;-72
2022/04/26 20:51:50;;;;;;;15.37;7.43;;;;;;;11.16;100.00;100765.69;10541992;28;20285;-67
2022/04/26 20:57:02;;;;;;;11.53;6.53;;;;;;;11.15;100.00;100767.44;10541813;28;20247;-66
2022/04/26 21:02:05;;;;;;;12.43;6.67;;;;;;;11.12;100.00;100771.78;10541703;28;20235;-67
2022/04/26 21:07:09;;;;;;;11.37;6.37;;;;;;;11.04;100.00;100779.63;10541287;28;20266;-66
2022/04/26 21:12:13;;;;;;;12.73;6.40;;;;;;;11.04;100.00;100790.03;10541613;28;20315;-68
2022/04/26 21:17:16;;;;;;;13.00;6.23;;;;;;;11.04;100.00;100781.34;10541435;28;20204;-67
2022/04/26 21:22:20;;;;;;;13.27;7.17;;;;;;;11.03;100.00;100792.59;10548685;28;20223;-69
2022/04/26 21:27:24;;;;;;;12.13;7.00;;;;;;;11.00;100.00;100785.69;10548740;28;20211;-66
2022/04/26 21:32:28;;;;;;;18.37;9.33;;;;;;;11.00;100.00;100784.81;10549084;28;20219;-67
2022/04/26 21:37:31;;;;;;;19.70;13.20;;;;;;;11.07;100.00;100795.19;10548271;28;20333;-68
2022/04/26 21:42:38;;;;;;;17.27;10.90;;;;;;;11.09;98.51;100796.06;10548097;28;20298;-69
2022/04/26 21:47:42;;;;;;;21.60;10.47;;;;;;;11.18;96.07;100810.72;10548204;28;20215;-67
2022/04/26 21:52:45;;;;;;;17.77;10.63;;;;;;;11.21;93.41;100803.78;10547582;28;20230;-68
2022/04/26 21:57:50;;;;;;;18.47;11.10;;;;;;;11.19;96.03;100815.03;10547788;28;20280;-64
2022/04/26 22:02:54;;;;;;;17.97;10.47;;;;;;;11.16;96.75;100818.53;10544491;28;20235;-68
2022/04/26 22:07:58;;;;;;;16.20;9.73;;;;;;;11.17;93.50;100816.78;10544024;28;20219;-67
2022/04/26 22:13:03;;;;;;;16.47;9.47;;;;;;;11.17;92.81;100817.66;10517451;28;20234;-68
2022/04/26 22:18:07;;;;;;;17.30;9.93;;;;;;;11.05;96.24;100816.84;10546811;28;20219;-70
2022/04/26 22:23:10;;;;;;;69.67;41.07;;;;;;;11.03;96.11;100822.03;10546355;28;20210;-69
2022/04/26 22:28:15;;;;;;;19.80;11.90;;;;;;;11.01;95.15;100815.97;10545491;28;20299;-68
2022/04/26 22:33:18;;;;;;;17.30;9.63;;;;;;;10.99;94.96;100822.91;10546218;28;20224;-67
2022/04/26 22:38:21;;;;;;;20.67;10.23;;;;;;;10.95;95.14;100829.00;10546430;28;20679;-65
2022/04/26 22:43:26;;;;;;;14.93;8.90;;;;;;;10.91;95.81;100829.88;10545812;28;20219;-67
2022/04/26 22:48:30;;;;;;;16.20;8.83;;;;;;;10.88;97.73;100835.09;10545628;28;20561;-73
2022/04/26 22:53:35;;;;;;;14.50;9.70;;;;;;;10.86;97.27;100842.03;10540071;28;20223;-71
2022/04/26 22:58:40;;;;;;;17.73;9.53;;;;;;;10.87;98.34;100840.31;10544424;28;20218;-71
2022/04/26 23:03:44;;;;;;;15.33;9.10;;;;;;;10.86;100.00;100849.81;10544159;28;20227;-67
2022/04/26 23:08:50;;;;;;;15.23;9.57;;;;;;;10.87;99.26;100846.34;10542420;28;20733;-68
2022/04/26 23:13:56;;;;;;;13.60;8.67;;;;;;;10.87;99.25;100853.28;10543643;28;20660;-67
2022/04/26 23:18:59;;;;;;;12.97;7.93;;;;;;;10.83;98.19;100852.44;10543438;28;20215;-68
2022/04/26 23:24:02;;;;;;;13.17;8.00;;;;;;;10.83;97.42;100851.56;10542979;28;20203;-69
2022/04/26 23:29:08;;;;;;;14.53;8.90;;;;;;;10.79;95.89;100855.91;10541022;28;20211;-66
2022/04/26 23:39:41;;;;;;;19.70;10.87;;;;;;;10.77;95.04;100856.78;10520167;28;20225;-69
2022/04/26 23:44:45;;;;;;;21.80;12.17;;;;;;;10.73;94.29;100855.94;10542412;28;20239;-69
2022/04/26 23:49:48;;;;;;;18.23;11.80;;;;;;;10.71;96.90;100852.47;10543045;28;20348;-66
2022/04/26 23:54:52;;;;;;;18.37;10.33;;;;;;;10.68;96.94;100849.00;10543070;28;20528;-65
2022/04/26 23:59:56;;;;;;;21.00;10.67;;;;;;;10.70;97.90;100855.06;10543070;28;20796;-68
